Weather observations for the past three days for
Bishop, Bishop Airport
Imperial (Metric)
Date Time (pdt) Wind (mph) Vis. (mi.) Weather Sky Cond. Temperature (ºF) Relative Humidity Wind Chill (°F) Heat Index (°F) Pressure Precipitation (in)
Air Dwpt 6 hour altimeter (in) sea level (mb) 1 hr 3 hr 6 hr
Max. Min.
09 01:56 NW 7 10.00 Fair CLR 59 26.1 28% 30.03 1012.1
09 00:56 SW 3 10.00 Fair CLR 63 23 22% 30.03 1011.9
08 23:56 NW 5 10.00 Fair CLR 63 25 24% 30.02 1011.5
08 22:56 W 8 10.00 Fair CLR 68 21.9 90 66.9 17% 30.01 1011.1
08 21:56 N 7 10.00 Fair CLR 68 30.9 25% 29.99 1010.9
08 20:56 N 10 10.00 Fair CLR 69.1 33.1 26% 29.97 1010.2
08 19:56 NW 13 10.00 Fair CLR 78.1 21.9 12% 77 29.93 1009.1
08 18:56 S 6 10.00 Fair CLR 84.9 27 12% 82 29.91 1008.4
08 17:56 Vrbl 7 10.00 Fair CLR 89.1 18 7% 85 29.91 1008.8
08 16:56 Calm 10.00 Fair CLR 88 12.9 90 81 6% 84 29.92 1008.8
08 15:56 Vrbl 3 10.00 Fair CLR 89.1 14 6% 85 29.94 1009.3
08 14:56 Vrbl 5 10.00 Fair CLR 88 12 6% 84 29.96 1009.9
08 13:56 SE 3 10.00 Fair CLR 87.1 12 6% 84 29.98 1010.7
08 12:56 Vrbl 5 10.00 Fair CLR 84 10 6% 81 30.01 1011.4
08 11:56 Calm 10.00 Fair CLR 84 16 8% 81 30.03 1012.0
08 10:56 E 3 10.00 Fair CLR 81 23 81 44.1 12% 79 30.05 1012.9
08 09:56 Vrbl 5 10.00 Fair CLR 75.9 27 16% 76 30.07 1013.6
08 08:56 Vrbl 5 10.00 Fair CLR 70 28.9 22% 30.08 1014.0
08 07:56 N 7 10.00 Fair CLR 62.1 32 32% 30.08 1014.5
08 06:56 NW 7 10.00 Fair CLR 54 35.1 49% 30.07 1014.1
08 05:56 NW 7 10.00 Fair CLR 45 36 71% 42 30.06 1013.9
08 04:56 NW 9 10.00 Fair CLR 52 37 64.9 50 57% 30.05 1013.2
08 03:56 NW 7 10.00 Fair CLR 52 36 55% 30.05 1013.2
08 02:56 NW 7 10.00 Fair CLR 55.9 36 47% 30.05 1013.1
08 01:56 N 5 10.00 Fair CLR 57 37.9 49% 30.05 1013.2
08 00:56 Calm 10.00 Fair CLR 61 37 41% 30.06 1013.2
07 23:56 NW 3 10.00 Fair CLR 63 39 41% 30.05 1012.9
07 22:56 N 3 10.00 Fair CLR 64.9 39 87.1 64 39% 30.03 1012.5
07 21:56 N 10 10.00 Fair CLR 70 39 32% 30.02 1012.0
07 20:56 NW 9 10.00 Fair CLR 72 36 27% 30 1011.3
07 19:56 N 9 10.00 Fair CLR 75.9 32 20% 76 29.96 1010.6
07 18:56 S 3 10.00 Fair CLR 84 28.9 13% 81 29.94 1009.9
07 17:56 Vrbl 3 10.00 Fair CLR 86 21.9 9% 83 29.94 1010.2
07 16:56 Vrbl 7 10.00 Fair CLR 87.1 23 88 77 9% 84 29.95 1010.0
07 15:56 S 6 10.00 Fair CLR 87.1 21.9 9% 84 29.96 1010.4
07 14:56 Vrbl 6 10.00 Fair CLR 87.1 19.9 8% 84 29.98 1011.1
07 13:56 Calm 10.00 Fair CLR 84 17.1 8% 81 30.01 1012.1
07 12:56 NE 5 10.00 Fair CLR 82 14 8% 80 30.04 1013.1
07 11:56 Calm 10.00 Fair CLR 79 25 14% 78 30.07 1014.1
07 10:56 Vrbl 3 10.00 Fair CLR 77 28.9 77 39.9 17% 77 30.09 1014.8
07 09:56 W 5 10.00 Fair CLR 73 33.1 23% 30.11 1015.1
07 08:56 N 3 10.00 Fair CLR 66.9 35.1 31% 30.13 1016.0
07 07:56 Calm 10.00 Fair CLR 57.9 36 44% 30.14 1017.2
07 06:56 Calm 10.00 Fair CLR 48 35.1 61% 30.14 1017.0
07 05:56 NW 6 10.00 Fair CLR 39.9 32 73% 36 30.12 1016.7
07 04:56 W 8 10.00 Fair CLR 46.9 32 64 43 56% 44 30.12 1016.3
07 03:56 N 3 10.00 Fair CLR 46 33.1 61% 30.12 1016.4
07 02:56 NW 7 10.00 Fair CLR 48 32 54% 45 30.12 1016.3
07 01:56 W 7 10.00 Fair CLR 53.1 33.1 47% 30.13 1016.2
07 00:56 W 7 10.00 Fair CLR 54 32 43% 30.13 1016.3
06 23:56 N 3 10.00 Fair CLR 57 32 39% 30.12 1016.0
06 22:56 Calm 10.00 Fair CLR 61 30.9 82 60.1 32% 30.1 1015.4
06 21:56 W 12 10.00 Fair CLR 66.9 30 25% 30.09 1014.6
06 20:56 NW 8 10.00 Fair CLR 68 32 26% 30.06 1014.1
06 19:56 N 5 10.00 Fair CLR 68 33.1 27% 30.03 1013.3
06 18:56 N 9 10.00 Fair CLR 78.1 30 17% 77 30.02 1012.6
06 17:56 W 5 10.00 Fair CLR 81 27 14% 79 30.02 1012.9
06 16:56 Vrbl 3 10.00 Fair CLR 81 27 82.9 72 14% 79 30.01 1012.6
06 15:56 Calm 10.00 Fair CLR 82 28.9 14% 80 30.02 1012.7
06 14:56 Vrbl 5 10.00 Fair CLR 81 30 16% 79 30.04 1013.4
06 13:56 Calm 10.00 Fair CLR 80.1 30 16% 78 30.05 1013.9
06 12:56 Calm 10.00 Fair CLR 79 33.1 19% 78 30.07 1014.3
06 11:56 Vrbl 6 10.00 Fair CLR 75 34 22% 76 30.09 1015.2
06 10:56 NW 8 10.00 Fair CLR 73 37 73 43 27% 30.1 1015.7
06 09:56 NW 5 10.00 Fair CLR 68 37.9 33% 30.1 1016.3
06 08:56 NW 6 10.00 Fair CLR 63 37.9 40% 30.1 1016.3
06 07:56 N 6 10.00 Fair CLR 59 39.9 49% 30.1 1016.4
06 06:56 NW 5 10.00 Fair CLR 52 37.9 59% 30.08 1015.6
06 05:56 Vrbl 3 10.00 Fair CLR 45 37.9 77% 30.05 1014.9
06 04:56 W 5 10.00 Fair CLR 46.9 37.9 55 46.9 71% 45 30.04 1014.3
06 03:56 NW 6 10.00 Fair CLR 48.9 37.9 66% 47 30.03 1013.9
06 02:56 NW 7 10.00 Partly Cloudy SCT110 51.1 41 69% 30.01 1013.2
Date Time (pdt) Wind (mph) Vis. (mi.) Weather Sky Cond. Air Dwpt Max. Min. Relative Humidity Wind Chill (°F) Heat Index (°F) altimeter (in) sea level (mb) 1 hr 3 hr 6 hr
6 hour
Temperature (ºF) Pressure Precipitation (in)